createdAt,value
2022-09-21T00:00:37.080Z,1002.22
2022-09-21T00:01:37.127Z,1002.22
2022-09-21T00:02:38.087Z,1002.19
2022-09-21T00:03:37.065Z,1002.23
2022-09-21T00:04:37.128Z,1002.25
2022-09-21T00:05:37.055Z,1002.21
2022-09-21T00:06:37.040Z,1002.19
2022-09-21T00:07:37.065Z,1002.22
2022-09-21T00:08:37.012Z,1002.17
2022-09-21T00:09:38.014Z,1002.16
2022-09-21T00:10:37.008Z,1002.18
2022-09-21T00:11:36.999Z,1002.21
2022-09-21T00:12:37.017Z,1002.16
2022-09-21T00:13:36.989Z,1002.12
2022-09-21T00:14:36.978Z,1002.12
2022-09-21T00:15:36.961Z,1002.24
2022-09-21T00:16:38.026Z,1002.16
2022-09-21T00:17:36.953Z,1002.15
2022-09-21T00:18:36.944Z,1002.23
2022-09-21T00:19:36.939Z,1002.18
2022-09-21T00:20:36.931Z,1002.18
2022-09-21T00:21:36.959Z,1002.15
2022-09-21T00:22:36.911Z,1002.19
2022-09-21T00:23:36.904Z,1002.11
2022-09-21T00:24:36.900Z,1002.22
2022-09-21T00:25:36.892Z,1002.11
2022-09-21T00:26:36.912Z,1002.23
2022-09-21T00:27:36.878Z,1002.24
2022-09-21T00:28:36.867Z,1002.20
2022-09-21T00:29:36.861Z,1002.24
2022-09-21T00:30:36.854Z,1002.19
2022-09-21T00:31:36.927Z,1002.24
2022-09-21T00:32:36.833Z,1002.26
2022-09-21T00:33:36.839Z,1002.34
2022-09-21T00:34:36.820Z,1002.23
2022-09-21T00:35:36.812Z,1002.27
2022-09-21T00:36:36.838Z,1002.25
2022-09-21T00:37:36.794Z,1002.22
2022-09-21T00:38:36.794Z,1002.15
2022-09-21T00:39:36.785Z,1002.19
2022-09-21T00:40:36.807Z,1002.25
2022-09-21T00:41:36.794Z,1002.22
2022-09-21T00:42:36.768Z,1002.31
2022-09-21T00:43:36.750Z,1002.27
2022-09-21T00:44:36.744Z,1002.35
2022-09-21T00:45:36.756Z,1002.26
2022-09-21T00:46:36.758Z,1002.31
2022-09-21T00:47:36.726Z,1002.19
2022-09-21T00:48:36.710Z,1002.23
2022-09-21T00:49:36.704Z,1002.34
2022-09-21T00:50:36.699Z,1002.27
2022-09-21T00:51:36.717Z,1002.31
2022-09-21T00:52:36.680Z,1002.33
2022-09-21T00:53:36.671Z,1002.31
2022-09-21T00:54:36.667Z,1002.27
2022-09-21T00:55:36.652Z,1002.30
2022-09-21T00:56:36.668Z,1002.30
2022-09-21T00:57:36.636Z,1002.34
2022-09-21T00:58:36.629Z,1002.30
2022-09-21T00:59:36.621Z,1002.40
2022-09-21T01:00:36.613Z,1002.32
2022-09-21T01:01:36.630Z,1002.37
2022-09-21T01:02:36.601Z,1002.39
2022-09-21T01:03:36.591Z,1002.38
2022-09-21T01:04:36.584Z,1002.42
2022-09-21T01:05:36.581Z,1002.30
2022-09-21T01:06:36.599Z,1002.35
2022-09-21T01:07:36.565Z,1002.32
2022-09-21T01:08:36.559Z,1002.38
2022-09-21T01:09:36.550Z,1002.38
2022-09-21T01:10:36.536Z,1002.36
2022-09-21T01:11:36.561Z,1002.35
2022-09-21T01:12:36.530Z,1002.38
2022-09-21T01:13:36.515Z,1002.32
2022-09-21T01:14:36.511Z,1002.46
2022-09-21T01:15:36.503Z,1002.36
2022-09-21T01:16:36.593Z,1002.38
2022-09-21T01:17:36.483Z,1002.39
2022-09-21T01:18:36.476Z,1002.39
2022-09-21T01:19:36.466Z,1002.42
2022-09-21T01:20:36.462Z,1002.41
2022-09-21T01:21:36.459Z,1002.40
2022-09-21T01:22:36.474Z,1002.50
2022-09-21T01:23:36.478Z,1002.46
2022-09-21T01:24:36.432Z,1002.37
2022-09-21T01:25:36.420Z,1002.46
2022-09-21T01:26:36.417Z,1002.42
2022-09-21T01:27:36.432Z,1002.42
2022-09-21T01:28:36.399Z,1002.48
2022-09-21T01:29:36.395Z,1002.45
2022-09-21T01:30:36.394Z,1002.46
2022-09-21T01:31:36.491Z,1002.46
2022-09-21T01:32:36.394Z,1002.48
2022-09-21T01:33:36.365Z,1002.42
2022-09-21T01:34:36.352Z,1002.40
2022-09-21T01:35:36.341Z,1002.43
2022-09-21T01:36:36.341Z,1002.46
2022-09-21T01:37:36.355Z,1002.42
2022-09-21T01:38:36.320Z,1002.41
2022-09-21T01:39:36.310Z,1002.46
2022-09-21T01:40:36.370Z,1002.45
2022-09-21T01:41:36.297Z,1002.40
2022-09-21T01:42:36.317Z,1002.46
2022-09-21T01:43:36.277Z,1002.39
2022-09-21T01:44:36.281Z,1002.45
2022-09-21T01:45:36.324Z,1002.51
2022-09-21T01:46:36.256Z,1002.47
2022-09-21T01:47:36.278Z,1002.45
2022-09-21T01:48:36.243Z,1002.44
2022-09-21T01:49:36.242Z,1002.43
2022-09-21T01:50:36.224Z,1002.47
2022-09-21T01:51:36.214Z,1002.42
2022-09-21T01:52:36.245Z,1002.41
2022-09-21T01:53:36.204Z,1002.47
2022-09-21T01:54:36.200Z,1002.39
2022-09-21T01:55:36.188Z,1002.45
2022-09-21T01:56:36.178Z,1002.40
2022-09-21T01:57:36.194Z,1002.46
2022-09-21T01:58:36.174Z,1002.40
2022-09-21T01:59:36.160Z,1002.49
2022-09-21T02:00:36.211Z,1002.47
2022-09-21T02:01:36.170Z,1002.43
2022-09-21T02:02:36.169Z,1002.44
2022-09-21T02:03:36.127Z,1002.45
2022-09-21T02:04:36.117Z,1002.51
2022-09-21T02:05:36.116Z,1002.47
2022-09-21T02:06:36.099Z,1002.53
2022-09-21T02:07:36.129Z,1002.46
2022-09-21T02:08:36.084Z,1002.51
2022-09-21T02:09:36.087Z,1002.48
2022-09-21T02:10:36.069Z,1002.49
2022-09-21T02:11:36.059Z,1002.54
2022-09-21T02:12:36.115Z,1002.54
2022-09-21T02:13:36.052Z,1002.61
2022-09-21T02:14:36.033Z,1002.54
2022-09-21T02:15:36.031Z,1002.55
2022-09-21T02:16:36.018Z,1002.53
2022-09-21T02:17:36.015Z,1002.52
2022-09-21T02:18:36.033Z,1002.58
2022-09-21T02:19:36.001Z,1002.48
2022-09-21T02:20:35.998Z,1002.57
2022-09-21T02:21:35.979Z,1002.54
2022-09-21T02:22:35.974Z,1002.57
2022-09-21T02:23:35.988Z,1002.48
2022-09-21T02:24:35.959Z,1002.53
2022-09-21T02:25:35.951Z,1002.52
2022-09-21T02:26:35.941Z,1002.50
2022-09-21T02:27:35.936Z,1002.58
2022-09-21T02:28:35.989Z,1002.56
2022-09-21T02:29:35.924Z,1002.53
2022-09-21T02:30:35.920Z,1002.54
2022-09-21T02:31:35.956Z,1002.59
2022-09-21T02:32:35.897Z,1002.53
2022-09-21T02:33:35.911Z,1002.59
2022-09-21T02:34:35.879Z,1002.47
2022-09-21T02:35:35.883Z,1002.53
2022-09-21T02:36:35.867Z,1002.52
2022-09-21T02:37:35.856Z,1002.49
2022-09-21T02:38:35.879Z,1002.49
2022-09-21T02:39:35.855Z,1002.44
2022-09-21T02:40:35.877Z,1002.44
2022-09-21T02:41:35.825Z,1002.44
2022-09-21T02:42:35.823Z,1002.43
2022-09-21T02:43:35.842Z,1002.41
2022-09-21T02:44:35.809Z,1002.45
2022-09-21T02:45:35.809Z,1002.41
2022-09-21T02:46:35.845Z,1002.43
2022-09-21T02:47:35.786Z,1002.43
2022-09-21T02:48:35.801Z,1002.43
2022-09-21T02:49:35.765Z,1002.43
2022-09-21T02:50:35.754Z,1002.46
2022-09-21T02:51:35.749Z,1002.47
2022-09-21T02:52:35.737Z,1002.45
2022-09-21T02:53:35.757Z,1002.47
2022-09-21T02:54:35.731Z,1002.46
2022-09-21T02:55:35.716Z,1002.41
2022-09-21T02:56:35.707Z,1002.45
2022-09-21T02:57:35.703Z,1002.42
2022-09-21T02:58:35.717Z,1002.42
2022-09-21T02:59:35.691Z,1002.44
2022-09-21T03:00:35.706Z,1002.40
2022-09-21T03:01:35.691Z,1002.41
2022-09-21T03:02:35.663Z,1002.40
2022-09-21T03:03:35.675Z,1002.40
2022-09-21T03:04:35.654Z,1002.43
2022-09-21T03:05:35.640Z,1002.39
2022-09-21T03:06:35.625Z,1002.36
2022-09-21T03:07:35.622Z,1002.41
2022-09-21T03:08:35.632Z,1002.33
2022-09-21T03:09:35.606Z,1002.33
2022-09-21T03:10:35.601Z,1002.34
2022-09-21T03:11:35.588Z,1002.38
2022-09-21T03:12:35.566Z,1002.40
2022-09-21T03:13:36.598Z,1002.41
2022-09-21T03:14:35.561Z,1002.41
2022-09-21T03:15:35.609Z,1002.38
2022-09-21T03:16:35.565Z,1002.46
2022-09-21T03:17:35.535Z,1002.47
2022-09-21T03:18:35.561Z,1002.49
2022-09-21T03:19:35.523Z,1002.43
2022-09-21T03:20:35.513Z,1002.50
2022-09-21T03:21:38.370Z,1002.51
2022-09-21T03:22:35.504Z,1002.49
2022-09-21T03:23:35.496Z,1002.53
2022-09-21T03:24:35.511Z,1002.49
2022-09-21T03:25:35.480Z,1002.60
2022-09-21T03:26:35.467Z,1002.52
2022-09-21T03:27:35.462Z,1002.60
2022-09-21T03:28:35.477Z,1002.59
2022-09-21T03:29:35.441Z,1002.60
2022-09-21T03:30:35.439Z,1002.61
2022-09-21T03:31:35.429Z,1002.55
2022-09-21T03:32:35.425Z,1002.64
2022-09-21T03:33:35.414Z,1002.65
2022-09-21T03:34:35.431Z,1002.65
2022-09-21T03:35:35.399Z,1002.69
2022-09-21T03:36:35.391Z,1002.65
2022-09-21T03:37:39.316Z,1002.65
2022-09-21T03:38:37.376Z,1002.71
2022-09-21T03:39:35.393Z,1002.66
2022-09-21T03:40:35.385Z,1002.71
2022-09-21T03:41:35.352Z,1002.69
2022-09-21T03:42:35.341Z,1002.69
2022-09-21T03:43:35.336Z,1002.74
2022-09-21T03:44:35.356Z,1002.73
2022-09-21T03:45:35.322Z,1002.66
2022-09-21T03:46:35.343Z,1002.69
2022-09-21T03:47:35.306Z,1002.66
2022-09-21T03:48:35.297Z,1002.65
2022-09-21T03:49:35.312Z,1002.76
2022-09-21T03:50:35.286Z,1002.75
2022-09-21T03:51:35.270Z,1002.76
2022-09-21T03:52:35.263Z,1002.75
2022-09-21T03:53:35.257Z,1002.76
2022-09-21T03:54:35.271Z,1002.75
2022-09-21T03:55:35.235Z,1002.78
2022-09-21T03:56:35.233Z,1002.72
2022-09-21T03:57:35.218Z,1002.77
2022-09-21T03:58:35.214Z,1002.72
2022-09-21T03:59:35.234Z,1002.75
2022-09-21T04:00:35.197Z,1002.68
2022-09-21T04:01:35.204Z,1002.68
2022-09-21T04:02:35.231Z,1002.70
2022-09-21T04:03:35.174Z,1002.68
2022-09-21T04:04:35.195Z,1002.74
2022-09-21T04:05:35.206Z,1002.71
2022-09-21T04:06:35.156Z,1002.77
2022-09-21T04:07:35.151Z,1002.79
2022-09-21T04:08:35.133Z,1002.77
2022-09-21T04:09:35.152Z,1002.78
2022-09-21T04:10:35.126Z,1002.75
2022-09-21T04:11:35.115Z,1002.77
2022-09-21T04:12:35.105Z,1002.77
2022-09-21T04:13:35.097Z,1002.78
2022-09-21T04:14:35.088Z,1002.73
2022-09-21T04:15:35.145Z,1002.75
2022-09-21T04:16:35.072Z,1002.76
2022-09-21T04:17:35.062Z,1002.73
2022-09-21T04:18:35.055Z,1002.73
2022-09-21T04:19:35.051Z,1002.71
2022-09-21T04:20:35.066Z,1002.75
2022-09-21T04:21:35.030Z,1002.74
2022-09-21T04:22:35.424Z,1002.73
2022-09-21T04:23:35.016Z,1002.82
2022-09-21T04:24:35.005Z,1002.76
2022-09-21T04:25:35.023Z,1002.82
2022-09-21T04:26:34.991Z,1002.82
2022-09-21T04:27:34.987Z,1002.74
2022-09-21T04:28:34.972Z,1002.80
2022-09-21T04:29:34.967Z,1002.85
2022-09-21T04:30:37.712Z,1002.77
2022-09-21T04:31:35.950Z,1002.87
2022-09-21T04:32:34.940Z,1002.85
2022-09-21T04:33:34.933Z,1002.85
2022-09-21T04:34:34.920Z,1002.85
2022-09-21T04:35:34.958Z,1002.88
2022-09-21T04:36:36.784Z,1002.89
2022-09-21T04:37:35.899Z,1002.92
2022-09-21T04:38:34.893Z,1002.97
2022-09-21T04:39:34.880Z,1002.97
2022-09-21T04:40:34.935Z,1002.97
2022-09-21T04:41:34.871Z,1002.91
2022-09-21T04:42:34.865Z,1002.87
2022-09-21T04:43:34.855Z,1002.92
2022-09-21T04:44:34.842Z,1002.91
2022-09-21T04:45:34.863Z,1002.97
2022-09-21T04:46:34.844Z,1002.97
2022-09-21T04:47:34.822Z,1002.92
2022-09-21T04:48:34.817Z,1002.98
2022-09-21T04:49:34.807Z,1002.96
2022-09-21T04:50:34.826Z,1002.96
2022-09-21T04:51:34.787Z,1002.89
2022-09-21T04:52:34.780Z,1002.92
2022-09-21T04:53:34.772Z,1002.96
2022-09-21T04:54:34.766Z,1002.93
2022-09-21T04:55:34.791Z,1002.98
2022-09-21T04:56:34.751Z,1002.98
2022-09-21T04:57:34.744Z,1002.97
2022-09-21T04:58:34.739Z,1002.95
2022-09-21T04:59:34.725Z,1003.03
2022-09-21T05:00:34.741Z,1002.99
2022-09-21T05:01:34.721Z,1003.04
2022-09-21T05:02:34.703Z,1003.03
2022-09-21T05:03:34.783Z,1003.02
2022-09-21T05:04:34.689Z,1003.01
2022-09-21T05:05:34.702Z,1003.02
2022-09-21T05:06:34.672Z,1003.06
2022-09-21T05:07:34.664Z,1003.06
2022-09-21T05:08:34.656Z,1003.04
2022-09-21T05:09:34.653Z,1003.02
2022-09-21T05:10:34.667Z,1003.01
2022-09-21T05:11:34.636Z,1003.04
2022-09-21T05:12:35.965Z,1003.11
2022-09-21T05:13:34.620Z,1003.08
2022-09-21T05:14:34.613Z,1003.03
2022-09-21T05:15:34.661Z,1003.07
2022-09-21T05:16:34.594Z,1003.15
2022-09-21T05:17:34.587Z,1003.11
2022-09-21T05:18:34.579Z,1003.08
2022-09-21T05:19:34.573Z,1003.10
2022-09-21T05:20:34.589Z,1003.17
2022-09-21T05:21:34.553Z,1003.13
2022-09-21T05:22:34.551Z,1003.13
2022-09-21T05:23:34.542Z,1003.18
2022-09-21T05:24:34.530Z,1003.16
2022-09-21T05:25:34.550Z,1003.17
2022-09-21T05:26:34.516Z,1003.19
2022-09-21T05:27:34.508Z,1003.15
2022-09-21T05:28:39.116Z,1003.16
2022-09-21T05:29:36.494Z,1003.15
2022-09-21T05:30:34.554Z,1003.20
2022-09-21T05:31:34.541Z,1003.16
2022-09-21T05:32:34.468Z,1003.23
2022-09-21T05:33:34.462Z,1003.13
2022-09-21T05:34:36.787Z,1003.19
2022-09-21T05:35:35.470Z,1003.22
2022-09-21T05:36:34.440Z,1003.23
2022-09-21T05:37:34.434Z,1003.19
2022-09-21T05:38:34.420Z,1003.25
2022-09-21T05:39:34.417Z,1003.27
2022-09-21T05:40:34.481Z,1003.29
2022-09-21T05:41:34.399Z,1003.26
2022-09-21T05:42:34.393Z,1003.27
2022-09-21T05:43:34.383Z,1003.35
2022-09-21T05:44:34.385Z,1003.33
2022-09-21T05:45:34.391Z,1003.35
2022-09-21T05:46:34.361Z,1003.33
2022-09-21T05:47:34.354Z,1003.39
2022-09-21T05:48:34.341Z,1003.35
2022-09-21T05:49:34.332Z,1003.35
2022-09-21T05:50:34.342Z,1003.33
2022-09-21T05:51:35.316Z,1003.34
2022-09-21T05:52:34.311Z,1003.42
2022-09-21T05:53:34.303Z,1003.41
2022-09-21T05:54:34.296Z,1003.33
2022-09-21T05:55:34.315Z,1003.32
2022-09-21T05:56:34.277Z,1003.33
2022-09-21T05:57:34.274Z,1003.35
2022-09-21T05:58:34.262Z,1003.38
2022-09-21T05:59:34.254Z,1003.33
2022-09-21T06:00:34.280Z,1003.38
2022-09-21T06:01:34.287Z,1003.35
2022-09-21T06:02:34.315Z,1003.31
2022-09-21T06:03:34.223Z,1003.33
2022-09-21T06:04:34.213Z,1003.40
2022-09-21T06:05:34.238Z,1003.36
2022-09-21T06:06:34.198Z,1003.37
2022-09-21T06:07:34.243Z,1003.42
2022-09-21T06:08:34.185Z,1003.39
2022-09-21T06:09:34.172Z,1003.35
2022-09-21T06:10:34.171Z,1003.39
2022-09-21T06:11:34.190Z,1003.40
2022-09-21T06:12:34.152Z,1003.45
2022-09-21T06:13:34.146Z,1003.41
2022-09-21T06:14:34.137Z,1003.45
2022-09-21T06:15:34.132Z,1003.45
2022-09-21T06:16:34.215Z,1003.47
2022-09-21T06:17:34.118Z,1003.47
2022-09-21T06:18:34.110Z,1003.53
2022-09-21T06:19:34.091Z,1003.52
2022-09-21T06:20:35.095Z,1003.51
2022-09-21T06:21:34.115Z,1003.44
2022-09-21T06:22:34.077Z,1003.44
2022-09-21T06:23:34.068Z,1003.43
2022-09-21T06:24:34.063Z,1003.41
2022-09-21T06:25:34.057Z,1003.41
2022-09-21T06:26:34.082Z,1003.53
2022-09-21T06:27:34.046Z,1003.46
2022-09-21T06:28:34.035Z,1003.47
2022-09-21T06:29:34.024Z,1003.48
2022-09-21T06:30:34.045Z,1003.47
2022-09-21T06:31:34.036Z,1003.52
2022-09-21T06:32:34.006Z,1003.46
2022-09-21T06:33:33.996Z,1003.54
2022-09-21T06:34:33.992Z,1003.48
2022-09-21T06:35:33.984Z,1003.55
2022-09-21T06:36:33.999Z,1003.52
2022-09-21T06:37:33.958Z,1003.52
2022-09-21T06:38:33.950Z,1003.53
2022-09-21T06:39:33.944Z,1003.47
2022-09-21T06:40:33.983Z,1003.56
2022-09-21T06:41:33.955Z,1003.49
2022-09-21T06:42:33.928Z,1003.58
2022-09-21T06:43:33.913Z,1003.54
2022-09-21T06:44:33.909Z,1003.57
2022-09-21T06:45:33.954Z,1003.59
2022-09-21T06:46:33.923Z,1003.58
2022-09-21T06:47:33.885Z,1003.53
2022-09-21T06:48:33.883Z,1003.62
2022-09-21T06:49:33.875Z,1003.66
2022-09-21T06:50:33.872Z,1003.65
2022-09-21T06:51:33.882Z,1003.64
2022-09-21T06:52:33.845Z,1003.64
2022-09-21T06:53:33.843Z,1003.66
2022-09-21T06:54:33.835Z,1003.68
2022-09-21T06:55:33.823Z,1003.64
2022-09-21T06:56:33.841Z,1003.73
2022-09-21T06:57:33.833Z,1003.69
2022-09-21T06:58:34.801Z,1003.74
2022-09-21T06:59:33.793Z,1003.69
2022-09-21T07:00:33.820Z,1003.76
2022-09-21T07:01:33.846Z,1003.78
2022-09-21T07:02:33.767Z,1003.73
2022-09-21T07:03:33.756Z,1003.70
2022-09-21T07:04:33.750Z,1003.79
2022-09-21T07:05:33.741Z,1003.73
2022-09-21T07:06:33.761Z,1003.71
2022-09-21T07:07:33.725Z,1003.73
2022-09-21T07:10:35.705Z,1003.71
2022-09-21T07:11:33.719Z,1003.74
2022-09-21T07:12:33.686Z,1003.76
2022-09-21T07:13:33.677Z,1003.81
2022-09-21T07:14:33.677Z,1003.71
2022-09-21T07:15:33.663Z,1003.75
2022-09-21T07:16:33.969Z,1003.75
2022-09-21T07:17:33.649Z,1003.77
2022-09-21T07:18:42.676Z,1003.74
2022-09-21T07:19:35.632Z,1003.74
2022-09-21T07:20:33.626Z,1003.77
2022-09-21T07:21:33.650Z,1003.81
2022-09-21T07:22:33.608Z,1003.80
2022-09-21T07:23:33.610Z,1003.80
2022-09-21T07:24:33.595Z,1003.75
2022-09-21T07:25:33.586Z,1003.80
2022-09-21T07:26:33.580Z,1003.75
2022-09-21T07:27:33.596Z,1003.81
2022-09-21T07:28:33.579Z,1003.79
2022-09-21T07:29:33.557Z,1003.79
2022-09-21T07:30:33.548Z,1003.77
2022-09-21T07:31:33.603Z,1003.80
2022-09-21T07:32:33.812Z,1003.84
2022-09-21T07:33:36.035Z,1003.83
2022-09-21T07:34:34.518Z,1003.78
2022-09-21T07:35:33.507Z,1003.83
2022-09-21T07:36:33.503Z,1003.82
2022-09-21T07:37:33.523Z,1003.78
2022-09-21T07:38:33.482Z,1003.77
2022-09-21T07:39:33.474Z,1003.85
2022-09-21T07:40:33.525Z,1003.80
2022-09-21T07:41:33.461Z,1003.81
2022-09-21T07:42:33.482Z,1003.78
2022-09-21T07:43:33.440Z,1003.79
2022-09-21T07:44:33.433Z,1003.75
2022-09-21T07:45:33.474Z,1003.79
2022-09-21T07:46:33.426Z,1003.78
2022-09-21T07:47:33.412Z,1003.74
2022-09-21T07:48:33.459Z,1003.79
2022-09-21T07:49:33.396Z,1003.72
2022-09-21T07:50:33.391Z,1003.81
2022-09-21T07:51:33.384Z,1003.80
2022-09-21T07:52:33.410Z,1003.72
2022-09-21T07:53:33.369Z,1003.77
2022-09-21T07:54:33.370Z,1003.79
2022-09-21T07:55:33.351Z,1003.80
2022-09-21T07:56:33.342Z,1003.73
2022-09-21T07:57:33.336Z,1003.69
2022-09-21T07:58:33.352Z,1003.74
2022-09-21T07:59:33.317Z,1003.79
2022-09-21T08:00:33.349Z,1003.80
2022-09-21T08:01:33.302Z,1003.75
2022-09-21T08:02:33.350Z,1003.79
2022-09-21T08:03:33.311Z,1003.79
2022-09-21T08:04:33.282Z,1003.73
2022-09-21T08:05:33.263Z,1003.72
2022-09-21T08:06:34.265Z,1003.71
2022-09-21T08:07:33.256Z,1003.72
2022-09-21T08:08:34.073Z,1003.79
2022-09-21T08:09:33.239Z,1003.73
2022-09-21T08:10:33.251Z,1003.74
2022-09-21T08:11:33.262Z,1003.70
2022-09-21T08:12:33.242Z,1003.77
2022-09-21T08:13:33.215Z,1003.75
2022-09-21T08:14:33.199Z,1003.76
2022-09-21T08:15:48.918Z,1003.77
2022-09-21T08:16:35.857Z,1003.77
2022-09-21T08:17:33.193Z,1003.80
2022-09-21T08:18:33.169Z,1003.82
2022-09-21T08:19:33.152Z,1003.82
2022-09-21T08:20:34.149Z,1003.80
2022-09-21T08:21:33.142Z,1003.79
2022-09-21T08:22:33.161Z,1003.84
2022-09-21T08:23:33.125Z,1003.84
2022-09-21T08:24:33.124Z,1003.80
2022-09-21T08:25:33.128Z,1003.76
2022-09-21T08:26:33.110Z,1003.77
2022-09-21T08:27:33.124Z,1003.72
2022-09-21T08:28:33.098Z,1003.80
2022-09-21T08:29:33.084Z,1003.77
2022-09-21T08:30:33.074Z,1003.75
2022-09-21T08:31:33.088Z,1003.82
2022-09-21T08:32:50.481Z,1003.79
2022-09-21T08:33:35.054Z,1003.81
2022-09-21T08:34:33.046Z,1003.77
2022-09-21T08:35:33.033Z,1003.79
2022-09-21T08:36:33.032Z,1003.77
2022-09-21T08:37:33.051Z,1003.80
2022-09-21T08:38:33.014Z,1003.80
2022-09-21T08:39:33.006Z,1003.83
2022-09-21T08:40:33.035Z,1003.77
2022-09-21T08:41:32.992Z,1003.83
2022-09-21T08:42:33.013Z,1003.85
2022-09-21T08:43:32.969Z,1003.82
2022-09-21T08:44:32.967Z,1003.80
2022-09-21T08:45:32.951Z,1003.81
2022-09-21T08:46:32.995Z,1003.80
2022-09-21T08:47:32.941Z,1003.86
2022-09-21T08:48:36.601Z,1003.80
2022-09-21T08:49:33.924Z,1003.83
2022-09-21T08:50:32.920Z,1003.83
2022-09-21T08:51:33.002Z,1003.84
2022-09-21T08:52:32.938Z,1003.84
2022-09-21T08:53:32.918Z,1003.84
2022-09-21T08:54:32.887Z,1003.91
2022-09-21T08:55:32.878Z,1003.85
2022-09-21T08:56:47.404Z,1003.86
2022-09-21T08:57:34.866Z,1003.93
2022-09-21T08:58:32.883Z,1003.90
2022-09-21T08:59:32.851Z,1003.89
2022-09-21T09:00:32.875Z,1003.83
2022-09-21T09:01:32.856Z,1003.81
2022-09-21T09:02:32.851Z,1003.87
2022-09-21T09:03:32.814Z,1003.87
2022-09-21T09:04:32.811Z,1003.88
2022-09-21T09:05:32.799Z,1003.96
2022-09-21T09:06:32.794Z,1003.88
2022-09-21T09:07:32.806Z,1003.94
2022-09-21T09:08:32.772Z,1003.91
2022-09-21T09:09:32.766Z,1003.95
2022-09-21T09:10:32.768Z,1003.93
2022-09-21T09:11:32.751Z,1003.90
2022-09-21T09:12:32.768Z,1003.95
2022-09-21T09:13:32.731Z,1003.98
2022-09-21T09:14:32.724Z,1004.02
2022-09-21T09:15:32.733Z,1003.96
2022-09-21T09:16:32.736Z,1003.98
2022-09-21T09:17:32.733Z,1004.01
2022-09-21T09:18:32.695Z,1003.93
2022-09-21T09:19:32.680Z,1004.04
2022-09-21T09:20:32.675Z,1003.95
2022-09-21T09:21:32.731Z,1003.95
2022-09-21T09:22:32.688Z,1003.90
2022-09-21T09:23:32.652Z,1003.98
2022-09-21T09:24:32.644Z,1003.89
2022-09-21T09:25:32.644Z,1003.89
2022-09-21T09:26:32.627Z,1003.90
2022-09-21T09:27:32.616Z,1003.91
2022-09-21T09:28:32.631Z,1003.95
2022-09-21T09:29:33.599Z,1003.90
2022-09-21T09:30:32.591Z,1003.95
2022-09-21T09:31:32.660Z,1003.98
2022-09-21T09:32:32.577Z,1003.94
2022-09-21T09:33:32.596Z,1003.98
2022-09-21T09:34:32.561Z,1003.95
2022-09-21T09:35:32.557Z,1003.94
2022-09-21T09:36:56.610Z,1003.91
2022-09-21T09:37:34.545Z,1003.87
2022-09-21T09:38:32.554Z,1003.90
2022-09-21T09:39:32.536Z,1003.94
2022-09-21T09:40:32.579Z,1003.91
2022-09-21T09:41:32.510Z,1003.88
2022-09-21T09:42:32.501Z,1003.86
2022-09-21T09:43:32.520Z,1003.90
2022-09-21T09:44:32.486Z,1003.93
2022-09-21T09:45:32.478Z,1003.89
2022-09-21T09:46:32.523Z,1003.91
2022-09-21T09:47:32.463Z,1003.90
2022-09-21T09:48:32.490Z,1003.89
2022-09-21T09:49:32.448Z,1003.91
2022-09-21T09:50:32.455Z,1003.92
2022-09-21T09:51:32.433Z,1003.89
2022-09-21T09:52:32.430Z,1003.96
2022-09-21T09:53:32.442Z,1003.88
2022-09-21T09:54:32.407Z,1003.92
2022-09-21T09:55:32.407Z,1003.86
2022-09-21T09:56:32.389Z,1003.92
2022-09-21T09:57:32.383Z,1003.86
2022-09-21T09:58:32.403Z,1003.94
2022-09-21T09:59:32.368Z,1003.94
2022-09-21T10:00:32.359Z,1003.87
2022-09-21T10:01:32.396Z,1003.88
2022-09-21T10:02:32.342Z,1003.87
2022-09-21T10:03:32.361Z,1003.88
2022-09-21T10:04:32.414Z,1003.88
2022-09-21T10:05:32.320Z,1003.92
2022-09-21T10:06:32.308Z,1003.94
2022-09-21T10:07:32.303Z,1003.87
2022-09-21T10:08:32.322Z,1003.89
2022-09-21T10:09:32.291Z,1003.88
2022-09-21T10:10:32.285Z,1003.86
2022-09-21T10:11:32.273Z,1003.88
2022-09-21T10:12:32.261Z,1003.79
2022-09-21T10:13:32.289Z,1003.84
2022-09-21T10:14:32.249Z,1003.80
2022-09-21T10:15:32.243Z,1003.85
2022-09-21T10:16:32.265Z,1003.82
2022-09-21T10:17:32.228Z,1003.73
2022-09-21T10:18:32.249Z,1003.73
2022-09-21T10:19:32.205Z,1003.79
2022-09-21T10:20:32.204Z,1003.74
2022-09-21T10:21:32.184Z,1003.79
2022-09-21T10:22:33.183Z,1003.73
2022-09-21T10:23:32.178Z,1003.72
2022-09-21T10:24:32.193Z,1003.70
2022-09-21T10:25:34.734Z,1003.78
2022-09-21T10:26:32.172Z,1003.70
2022-09-21T10:27:32.151Z,1003.65
2022-09-21T10:28:32.141Z,1003.67
2022-09-21T10:29:32.160Z,1003.67
2022-09-21T10:30:32.124Z,1003.62
2022-09-21T10:31:32.166Z,1003.67
2022-09-21T10:32:32.108Z,1003.66
2022-09-21T10:33:32.125Z,1003.66
2022-09-21T10:34:32.093Z,1003.57
2022-09-21T10:35:32.090Z,1003.64
2022-09-21T10:36:32.079Z,1003.65
2022-09-21T10:37:32.072Z,1003.62
2022-09-21T10:38:32.086Z,1003.65
2022-09-21T10:39:32.064Z,1003.59
2022-09-21T10:40:32.121Z,1003.59
2022-09-21T10:41:32.038Z,1003.62
2022-09-21T10:42:32.036Z,1003.59
2022-09-21T10:43:34.423Z,1003.56
2022-09-21T10:44:32.010Z,1003.55
2022-09-21T10:45:32.006Z,1003.56
2022-09-21T10:46:32.117Z,1003.49
2022-09-21T10:47:31.997Z,1003.49
2022-09-21T10:48:31.989Z,1003.51
2022-09-21T10:49:32.001Z,1003.51
2022-09-21T10:50:31.967Z,1003.50
2022-09-21T10:51:31.958Z,1003.48
2022-09-21T10:52:31.950Z,1003.55
2022-09-21T10:53:31.953Z,1003.48
2022-09-21T10:54:31.970Z,1003.54
2022-09-21T10:55:31.928Z,1003.45
2022-09-21T10:56:31.918Z,1003.50
2022-09-21T10:57:31.916Z,1003.53
2022-09-21T10:58:31.905Z,1003.48
2022-09-21T10:59:31.927Z,1003.45
2022-09-21T11:00:31.895Z,1003.49
2022-09-21T11:01:31.933Z,1003.52
2022-09-21T11:02:31.949Z,1003.39
2022-09-21T11:03:31.873Z,1003.39
2022-09-21T11:04:31.883Z,1003.43
2022-09-21T11:05:31.848Z,1003.41
2022-09-21T11:06:31.837Z,1003.40
2022-09-21T11:07:31.836Z,1003.38
2022-09-21T11:08:31.826Z,1003.40
2022-09-21T11:09:31.843Z,1003.38
2022-09-21T11:10:34.297Z,1003.37
2022-09-21T11:11:32.801Z,1003.32
2022-09-21T11:12:31.795Z,1003.38
2022-09-21T11:13:31.787Z,1003.39
2022-09-21T11:14:31.808Z,1003.35
2022-09-21T11:15:31.807Z,1003.34
2022-09-21T11:16:31.780Z,1003.32
2022-09-21T11:17:32.754Z,1003.37
2022-09-21T11:18:31.745Z,1003.39
2022-09-21T11:19:31.766Z,1003.41
2022-09-21T11:20:31.735Z,1003.32
2022-09-21T11:21:31.723Z,1003.35
2022-09-21T11:22:31.711Z,1003.35
2022-09-21T11:23:31.711Z,1003.34
2022-09-21T11:24:31.708Z,1003.40
2022-09-21T11:25:32.695Z,1003.35
2022-09-21T11:26:31.770Z,1003.31
2022-09-21T11:27:31.675Z,1003.31
2022-09-21T11:28:31.666Z,1003.31
2022-09-21T11:29:31.904Z,1003.28
2022-09-21T11:30:31.653Z,1003.34
2022-09-21T11:31:31.644Z,1003.34
2022-09-21T11:32:31.717Z,1003.33
2022-09-21T11:33:31.629Z,1003.30
2022-09-21T11:34:31.663Z,1003.34
2022-09-21T11:35:31.623Z,1003.30
2022-09-21T11:36:31.608Z,1003.25
2022-09-21T11:37:32.595Z,1003.20
2022-09-21T11:38:34.255Z,1003.19
2022-09-21T11:39:32.813Z,1003.20
2022-09-21T11:40:31.692Z,1003.18
2022-09-21T11:41:31.558Z,1003.18
2022-09-21T11:42:31.550Z,1003.17
2022-09-21T11:43:31.547Z,1003.21
2022-09-21T11:44:31.535Z,1003.19
2022-09-21T11:45:31.551Z,1003.14
2022-09-21T11:46:31.547Z,1003.13
2022-09-21T11:47:31.507Z,1003.10
2022-09-21T11:48:31.520Z,1003.09
2022-09-21T11:49:31.525Z,1003.06
2022-09-21T11:50:31.837Z,1003.09
2022-09-21T11:51:31.483Z,1003.09
2022-09-21T11:52:31.475Z,1003.06
2022-09-21T11:53:31.474Z,1003.08
2022-09-21T11:54:31.481Z,1003.01
2022-09-21T11:55:31.442Z,1003.07
2022-09-21T11:56:31.442Z,1003.09
2022-09-21T11:57:31.476Z,1003.06
2022-09-21T11:58:31.427Z,1003.11
2022-09-21T11:59:31.748Z,1003.09
2022-09-21T12:00:31.633Z,1003.02
2022-09-21T12:01:31.398Z,1003.02
2022-09-21T12:02:31.517Z,1003.00
2022-09-21T12:03:31.387Z,1002.99
2022-09-21T12:04:31.405Z,1002.95
2022-09-21T12:05:31.367Z,1003.00
2022-09-21T12:06:31.359Z,1002.94
2022-09-21T12:07:31.354Z,1003.00